createdAt,value
2023-03-01T00:05:02.960Z,99111.9
2023-03-01T00:10:38.205Z,99113.7
2023-03-01T00:16:15.702Z,99109.3
2023-03-01T00:21:52.438Z,99110
2023-03-01T00:27:28.104Z,99107.1
2023-03-01T00:33:03.245Z,99104.9
2023-03-01T00:38:39.418Z,99106.1
2023-03-01T00:44:20.655Z,99100.8
2023-03-01T00:49:56.877Z,99101.8
2023-03-01T00:55:32.545Z,99096.9
2023-03-01T01:01:11.069Z,99096.1
2023-03-01T01:06:46.504Z,99095.3
2023-03-01T01:12:22.015Z,99095.5
2023-03-01T01:18:00.272Z,99091.5
2023-03-01T01:23:35.777Z,99081.5
2023-03-01T01:29:10.727Z,99075
2023-03-01T01:34:47.245Z,99069.5
2023-03-01T01:40:22.382Z,99066
2023-03-01T01:45:59.452Z,99062.8
2023-03-01T01:51:35.165Z,99055.1
2023-03-01T01:57:11.341Z,99048.5
2023-03-01T02:02:57.620Z,99039.8
2023-03-01T02:08:33.924Z,99030.5
2023-03-01T02:14:28.985Z,99021.1
2023-03-01T02:20:04.125Z,99012.7
2023-03-01T02:25:55.783Z,99006.6
2023-03-01T02:31:43.827Z,99001.4
2023-03-01T02:37:20.230Z,98992.9
2023-03-01T02:42:55.436Z,98983.5
2023-03-01T02:48:30.992Z,98974.7
2023-03-01T02:54:18.137Z,98964.2
2023-03-01T03:00:00.525Z,98956.8
2023-03-01T03:05:35.811Z,98953.3
2023-03-01T03:11:11.159Z,98953.1
2023-03-01T03:16:55.591Z,98948.9
2023-03-01T03:22:58.412Z,98947.7
2023-03-01T03:28:33.331Z,98945.9
2023-03-01T03:34:36.427Z,98948.7
2023-03-01T03:40:21.118Z,98939.8
2023-03-01T03:45:59.713Z,98935.5
2023-03-01T03:51:36.043Z,98938.7
2023-03-01T03:57:11.207Z,98933.3
2023-03-01T04:02:46.574Z,98935.1
2023-03-01T04:08:22.321Z,98931.3
2023-03-01T04:14:07.756Z,98926.3
2023-03-01T04:20:04.300Z,98922.8
2023-03-01T04:25:53.527Z,98923.9
2023-03-01T04:31:28.624Z,98920.9
2023-03-01T04:37:13.250Z,98919.9
2023-03-01T04:42:51.471Z,98917
2023-03-01T04:48:26.179Z,98906.3
2023-03-01T04:54:05.210Z,98908.1
2023-03-01T04:59:40.030Z,98903.1
2023-03-01T05:05:38.392Z,98903.8
2023-03-01T05:11:13.720Z,98906.2
2023-03-01T05:16:50.564Z,98910
2023-03-01T05:22:25.672Z,98914.1
2023-03-01T05:28:01.246Z,98917.3
2023-03-01T05:33:39.252Z,98907.5
2023-03-01T05:39:14.072Z,98903.2
2023-03-01T05:44:58.444Z,98906.9
2023-03-01T05:50:34.420Z,98902
2023-03-01T05:56:31.847Z,98900.8
2023-03-01T06:02:11.672Z,98906
2023-03-01T06:07:50.889Z,98907.5
2023-03-01T06:13:46.824Z,98908.4
2023-03-01T06:19:22.040Z,98912.3
2023-03-01T06:24:57.155Z,98911
2023-03-01T06:30:33.402Z,98901.2
2023-03-01T06:36:13.029Z,98892.1
2023-03-01T06:41:48.023Z,98887.6
2023-03-01T06:47:34.090Z,98886.9
2023-03-01T06:54:03.286Z,98892.3
2023-03-01T06:59:48.806Z,98903.3
2023-03-01T07:05:24.842Z,98911.4
2023-03-01T07:10:59.856Z,98915
2023-03-01T07:16:36.975Z,98923.2
2023-03-01T07:22:15.800Z,98926.7
2023-03-01T07:27:54.762Z,98929.3
2023-03-01T07:33:41.493Z,98932.7
2023-03-01T07:39:29.707Z,98931.5
2023-03-01T07:45:10.064Z,98936.3
2023-03-01T07:50:53.285Z,98938.6
2023-03-01T07:56:31.518Z,98940.7
2023-03-01T08:02:09.806Z,98940.5
2023-03-01T08:08:07.508Z,98936.4
2023-03-01T08:13:40.642Z,98936.2
2023-03-01T08:19:17.371Z,98933
2023-03-01T08:24:54.330Z,98927.4
2023-03-01T08:30:34.306Z,98927.5
2023-03-01T08:36:16.554Z,98914.2
2023-03-01T08:41:55.612Z,98913.3
2023-03-01T08:47:55.448Z,98917.9
2023-03-01T08:53:50.841Z,98913.7
2023-03-01T08:59:45.489Z,98908
2023-03-01T09:05:26.219Z,98916.1
2023-03-01T09:11:05.831Z,98908.8
2023-03-01T09:16:49.012Z,98908
2023-03-01T09:22:24.659Z,98901.4
2023-03-01T09:28:00.064Z,98894.1
2023-03-01T09:33:35.490Z,98883.1
2023-03-01T09:39:10.810Z,98871.5
2023-03-01T09:44:46.574Z,98873
2023-03-01T09:50:21.741Z,98876.1
2023-03-01T09:56:06.809Z,98875
2023-03-01T10:01:51.502Z,98878.1
2023-03-01T10:07:29.102Z,98879
2023-03-01T10:13:10.982Z,98865.2
2023-03-01T10:18:53.386Z,98862.1
2023-03-01T10:24:28.601Z,98862.9
2023-03-01T10:30:06.283Z,98857.1
2023-03-01T10:35:46.543Z,98841
2023-03-01T10:41:22.594Z,98844.6
2023-03-01T10:46:58.028Z,98833.7
2023-03-01T10:52:34.129Z,98831.4
2023-03-01T10:58:30.360Z,98822.6
2023-03-01T11:04:06.148Z,98816.7
2023-03-01T11:09:46.154Z,98815.1
2023-03-01T11:15:26.159Z,98806.2
2023-03-01T11:21:04.763Z,98801.8
2023-03-01T11:26:40.478Z,98794.5
2023-03-01T11:32:24.802Z,98786.8
2023-03-01T11:38:07.541Z,98780.6
2023-03-01T11:43:55.262Z,98777.6
2023-03-01T11:49:30.608Z,98767
2023-03-01T11:55:13.867Z,98759.5
2023-03-01T12:00:52.822Z,98750.6
2023-03-01T12:06:35.589Z,98741
2023-03-01T12:12:21.644Z,98731.3
2023-03-01T12:18:07.854Z,98721.7
2023-03-01T12:23:42.911Z,98716.7
2023-03-01T12:29:20.296Z,98712.3
2023-03-01T12:34:56.181Z,98702.7
2023-03-01T12:40:36.040Z,98701.5
2023-03-01T12:46:15.988Z,98690.8
2023-03-01T12:53:00.202Z,98686.1
2023-03-01T12:58:58.629Z,98685.2
2023-03-01T13:04:40.667Z,98674.3
2023-03-01T13:10:18.578Z,98666.1
2023-03-01T13:15:54.041Z,98664.4
2023-03-01T13:21:32.612Z,98662.5
2023-03-01T13:27:08.116Z,98666.8
2023-03-01T13:32:46.068Z,98665.9
2023-03-01T13:38:22.960Z,98656.5
2023-03-01T13:44:47.006Z,98651.1
2023-03-01T13:50:32.013Z,98651
2023-03-01T13:56:25.495Z,98643.3
2023-03-01T14:03:07.328Z,98642
2023-03-01T14:09:00.175Z,98637.3
2023-03-01T14:14:45.249Z,98636.5
2023-03-01T14:20:23.212Z,98630.7
2023-03-01T14:25:59.883Z,98633.2
2023-03-01T14:31:53.890Z,98634.9
2023-03-01T14:37:30.807Z,98644
2023-03-01T14:43:08.649Z,98640.6
2023-03-01T14:49:10.071Z,98642.2
2023-03-01T14:54:46.094Z,98644.1
2023-03-01T15:00:21.511Z,98636.9
2023-03-01T15:06:42.310Z,98644.3
2023-03-01T15:12:22.253Z,98641.5
2023-03-01T15:18:01.062Z,98637
2023-03-01T15:24:17.831Z,98627.4
2023-03-01T15:29:59.038Z,98627.1
2023-03-01T15:35:34.407Z,98614.9
2023-03-01T15:41:18.173Z,98626
2023-03-01T15:46:54.187Z,98623.2
2023-03-01T15:52:31.033Z,98624.8
2023-03-01T15:58:09.920Z,98621.8
2023-03-01T16:03:55.821Z,98619.5
2023-03-01T16:09:33.199Z,98615.9
2023-03-01T16:15:11.420Z,98618.8
2023-03-01T16:21:08.144Z,98616.5
2023-03-01T16:27:00.045Z,98617
2023-03-01T16:32:36.619Z,98621.1
2023-03-01T16:38:22.387Z,98625.4
2023-03-01T16:44:44.670Z,98642.1
2023-03-01T16:50:44.972Z,98643
2023-03-01T16:56:20.767Z,98645.6
2023-03-01T17:01:56.515Z,98654
2023-03-01T17:07:43.377Z,98659.6
2023-03-01T17:13:23.446Z,98668
2023-03-01T17:18:59.721Z,98677.2
2023-03-01T17:24:39.595Z,98687.1
2023-03-01T17:30:15.099Z,98698.9
2023-03-01T17:35:59.879Z,98704.4
2023-03-01T17:41:36.428Z,98717.2
2023-03-01T17:47:22.910Z,98720.5
2023-03-01T17:53:06.611Z,98730
2023-03-01T17:58:49.335Z,98735.9
2023-03-01T18:06:08.567Z,98743.4
2023-03-01T18:11:46.239Z,98749.5
2023-03-01T18:17:47.583Z,98747.6
2023-03-01T18:23:23.458Z,98755.2
2023-03-01T18:28:59.781Z,98758.3
2023-03-01T18:34:35.122Z,98765.3
2023-03-01T18:40:11.196Z,98771
2023-03-01T18:45:49.454Z,98774.3
2023-03-01T18:51:25.344Z,98772.4
2023-03-01T18:57:05.765Z,98777.6
2023-03-01T19:02:50.006Z,98778.3
2023-03-01T19:08:25.477Z,98784.2
2023-03-01T19:14:07.962Z,98791.3
2023-03-01T19:20:11.819Z,98796.1
2023-03-01T19:25:47.388Z,98801.3
2023-03-01T19:31:26.993Z,98799.7
2023-03-01T19:37:14.544Z,98808
2023-03-01T19:42:49.934Z,98805
2023-03-01T19:48:25.211Z,98809.2
2023-03-01T19:54:00.432Z,98810.9
2023-03-01T19:59:36.514Z,98811
2023-03-01T20:05:12.336Z,98816.2
2023-03-01T20:10:47.582Z,98813.7
2023-03-01T20:17:04.892Z,98813.9
2023-03-01T20:22:41.315Z,98812.9
2023-03-01T20:28:17.785Z,98813.3
2023-03-01T20:33:52.837Z,98813.2
2023-03-01T20:39:31.547Z,98810.4
2023-03-01T20:45:55.819Z,98814.9
2023-03-01T20:53:13.433Z,98815.6
2023-03-01T20:58:57.989Z,98814.2
2023-03-01T21:04:34.881Z,98820.5
2023-03-01T21:10:27.694Z,98817.7
2023-03-01T21:16:04.434Z,98818
2023-03-01T21:21:49.401Z,98827.1
2023-03-01T21:27:33.654Z,98824.4
2023-03-01T21:33:08.788Z,98824.1
2023-03-01T21:38:55.775Z,98822.2
2023-03-01T21:44:36.382Z,98822.3
2023-03-01T21:50:11.887Z,98826.1
2023-03-01T21:55:46.861Z,98823.9
2023-03-01T22:01:30.027Z,98830.3
2023-03-01T22:07:10.114Z,98828.1
2023-03-01T22:13:02.433Z,98825.5
2023-03-01T22:18:39.720Z,98822.3
2023-03-01T22:24:23.320Z,98820.3
2023-03-01T22:29:59.618Z,98819.7
2023-03-01T22:35:35.586Z,98820
2023-03-01T22:41:15.293Z,98808.7
2023-03-01T22:46:52.545Z,98807
2023-03-01T22:52:27.932Z,98800.4
2023-03-01T22:58:06.049Z,98797.9
2023-03-01T23:04:02.065Z,98797.3
2023-03-01T23:09:36.952Z,98798.3
2023-03-01T23:15:12.701Z,98793.2
2023-03-01T23:20:54.155Z,98790.8
2023-03-01T23:27:15.066Z,98789.9
2023-03-01T23:32:50.319Z,98793.8
2023-03-01T23:38:26.589Z,98797.3
2023-03-01T23:44:23.237Z,98795.3
2023-03-01T23:49:58.525Z,98789.9
2023-03-01T23:55:33.794Z,98786
